KTDZ/TDZ METAR and TAF weather

Enter ICAO airport designator
Station Type Date Time Source
KTDZ METAR 2021/08/05 03:53 UTC NOAA

KTDZ 050353Z AUTO 00000KT 9SM SCT065 21/14 A3014 RMK AO2 SLP201 T02060139


Station Type Date Time Source
KTDZ Decoded METAR 2021/08/05 03:53 UTC NOAA

TOLEDO METCALF FIELD, OH, United States (KTDZ) 41-34N 83-29W 189M
Aug 04, 2021 - 11:53 PM EDT / 2021.08.05 0353 UTC
Wind: Calm:0
Visibility: 9 mile(s):0
Sky conditions: partly cloudy
Temperature: 69.1 F (20.6 C)
Dew Point: 57.0 F (13.9 C)
Relative Humidity: 65%
Pressure (altimeter): 30.14 in. Hg (1020 hPa)
ob: KTDZ 050353Z AUTO 00000KT 9SM SCT065 21/14 A3014 RMK AO2 SLP201 T02060139
cycle: 4

Station Type Date Time Source
KTDZ TAF UTC NOAA

Error!

Example: see airport list